createdAt,value
2017-06-26T15:57:37.253Z,36.41
2017-06-26T15:58:34.871Z,36.8
2017-06-26T15:59:34.985Z,36.9
2017-06-26T16:00:36.137Z,36.11
2017-06-26T16:01:34.879Z,36.41
2017-06-26T16:02:34.569Z,35.82
2017-06-26T16:03:34.911Z,35.43
2017-06-26T16:04:34.580Z,35.43
2017-06-26T16:05:34.904Z,35.82
2017-06-26T16:06:34.919Z,35.14
2017-06-26T16:07:34.929Z,35.92
2017-06-26T16:08:34.924Z,35.43
2017-06-26T16:09:34.936Z,34.94
2017-06-26T16:10:34.939Z,35.24
2017-06-26T16:11:34.636Z,35.24
2017-06-26T16:12:34.638Z,34.94
2017-06-26T16:13:34.965Z,35.04
2017-06-26T16:14:34.968Z,34.86
2017-06-26T16:15:34.975Z,35.25
2017-06-26T16:16:34.978Z,34.86
2017-06-26T16:17:34.989Z,35.06
2017-06-26T16:18:34.986Z,35.24
2017-06-26T16:19:34.993Z,36.62
2017-06-26T16:20:35.029Z,36.21
2017-06-26T16:21:35.007Z,35.82
2017-06-26T16:22:35.018Z,35.43
2017-06-26T16:23:35.031Z,35.61
2017-06-26T16:24:35.033Z,35.71
2017-06-26T16:25:34.730Z,36
2017-06-26T16:26:35.051Z,35.71
2017-06-26T16:27:35.052Z,36.78
2017-06-26T16:28:38.254Z,35.41
2017-06-26T16:29:35.067Z,35.8
2017-06-26T16:30:34.767Z,36.1
2017-06-26T16:31:35.081Z,37.55
2017-06-26T16:32:34.790Z,36.39
2017-06-26T16:33:35.117Z,36.39
2017-06-26T16:34:35.110Z,37.57
2017-06-26T16:35:35.118Z,36.51
2017-06-26T16:36:35.124Z,36.6
2017-06-26T16:37:35.127Z,37.77
2017-06-26T16:38:34.828Z,36.8
2017-06-26T16:39:35.136Z,36.7
2017-06-26T16:40:35.143Z,35.53
2017-06-26T16:41:35.181Z,35.72
2017-06-26T16:42:35.164Z,35.63
2017-06-26T16:43:34.874Z,35.63
2017-06-26T16:44:34.877Z,36
2017-06-26T16:45:34.880Z,36.68
2017-06-26T16:46:34.880Z,35.92
2017-06-26T16:47:35.204Z,35.61
2017-06-26T16:48:35.210Z,35.41
2017-06-26T16:49:35.279Z,35.51
2017-06-26T16:50:35.220Z,35.8
2017-06-26T16:51:35.227Z,35.61
2017-06-26T16:52:35.237Z,35.51
2017-06-26T16:53:35.241Z,35.61
2017-06-26T16:54:35.247Z,35.43
2017-06-26T16:55:35.259Z,35.33
2017-06-26T16:56:34.954Z,35.04
2017-06-26T16:57:35.268Z,35.72
2017-06-26T16:58:35.278Z,36.11
2017-06-26T16:59:35.284Z,36.11
2017-06-26T17:00:35.294Z,36.19
2017-06-26T17:01:35.302Z,36.39
2017-06-26T17:02:35.000Z,36.78
2017-06-26T17:03:35.315Z,36.39
2017-06-26T17:04:35.013Z,36.98
2017-06-26T17:05:35.022Z,37.65
2017-06-26T17:06:35.372Z,36.68
2017-06-26T17:07:35.351Z,36.49
2017-06-26T17:08:35.354Z,36.58
2017-06-26T17:09:35.045Z,37.46
2017-06-26T17:10:35.365Z,36.49
2017-06-26T17:11:35.381Z,36.78
2017-06-26T17:12:35.380Z,36.19
2017-06-26T17:13:35.394Z,36.19
2017-06-26T17:14:35.448Z,36.68
2017-06-26T17:15:35.401Z,36.88
2017-06-26T17:16:35.409Z,37.63
2017-06-26T17:17:35.417Z,37.63
2017-06-26T17:18:35.421Z,37.45
2017-06-26T17:19:35.430Z,36.78
2017-06-26T17:20:35.134Z,37.07
2017-06-26T17:21:35.443Z,36.88
2017-06-26T17:22:35.140Z,36.98
2017-06-26T17:23:35.479Z,36.98
2017-06-26T17:24:35.475Z,36.68
2017-06-26T17:25:35.481Z,36.88
2017-06-26T17:26:35.485Z,36.68
2017-06-26T17:27:35.487Z,36.68
2017-06-26T17:28:35.493Z,36.88
2017-06-26T17:29:36.301Z,36.78
2017-06-26T17:30:35.520Z,36.88
2017-06-26T17:31:35.523Z,36.57
2017-06-26T17:32:35.211Z,37.17
2017-06-26T17:33:35.605Z,37.54
2017-06-26T17:34:35.538Z,37.35
2017-06-26T17:35:35.547Z,38.42
2017-06-26T17:36:35.551Z,39.2
2017-06-26T17:37:35.559Z,38.2
2017-06-26T17:38:35.565Z,37.63
2017-06-26T17:39:35.579Z,37.45
2017-06-26T17:40:35.589Z,39.98
2017-06-26T17:41:35.589Z,37.63
2017-06-26T17:42:35.593Z,37.52
2017-06-26T17:43:35.601Z,37.71
2017-06-26T17:44:36.927Z,37.71
2017-06-26T17:45:35.618Z,38.1
2017-06-26T17:46:35.623Z,38.49
2017-06-26T17:47:35.628Z,38.3
2017-06-26T17:48:35.634Z,37.91
2017-06-26T17:49:35.645Z,38.89
2017-06-26T17:50:35.649Z,40.06
2017-06-26T17:51:35.653Z,39.45
2017-06-26T17:52:35.662Z,38.38
2017-06-26T17:53:35.685Z,38.67
2017-06-26T17:54:35.682Z,38.79
2017-06-26T17:55:35.369Z,39.08
2017-06-26T17:56:35.691Z,37.81
2017-06-26T17:57:35.714Z,38.01
2017-06-26T17:58:35.706Z,38.01
2017-06-26T17:59:35.713Z,38.59
2017-06-26T18:00:35.717Z,38.57
2017-06-26T18:01:35.722Z,38.59
2017-06-26T18:02:35.733Z,38.38
2017-06-26T18:03:35.733Z,39.26
2017-06-26T18:04:35.743Z,38.87
2017-06-26T18:05:35.749Z,38.96
2017-06-26T18:06:35.446Z,38.57
2017-06-26T18:07:35.450Z,38.67
2017-06-26T18:08:35.456Z,38.77
2017-06-26T18:09:35.474Z,38.77
2017-06-26T18:10:35.779Z,38.67
2017-06-26T18:11:35.476Z,38.67
2017-06-26T18:12:35.483Z,38.67
2017-06-26T18:13:35.803Z,38.67
2017-06-26T18:14:35.807Z,38.57
2017-06-26T18:15:36.349Z,38.28
2017-06-26T18:17:01.529Z,38.96
2017-06-26T18:17:35.829Z,39.26
2017-06-26T18:18:35.831Z,38.95
2017-06-26T18:19:35.844Z,38.95
2017-06-26T18:20:35.862Z,39.04
2017-06-26T18:21:35.901Z,39.24
2017-06-26T18:22:35.859Z,38.95
2017-06-26T18:23:35.864Z,39.04
2017-06-26T18:24:35.881Z,39.24
2017-06-26T18:25:35.619Z,40.01
2017-06-26T18:26:35.903Z,39.72
2017-06-26T18:27:35.592Z,39.72
2017-06-26T18:28:35.900Z,39.62
2017-06-26T18:29:35.909Z,40.01
2017-06-26T18:30:38.875Z,39.92
2017-06-26T18:31:35.923Z,40.11
2017-06-26T18:32:35.610Z,40.01
2017-06-26T18:33:35.988Z,40.01
2017-06-26T18:34:35.935Z,40.39
2017-06-26T18:35:35.628Z,40.68
2017-06-26T18:36:35.952Z,40.6
2017-06-26T18:37:35.968Z,40.48
2017-06-26T18:38:35.958Z,40.58
2017-06-26T18:39:35.968Z,40.11
2017-06-26T18:40:35.985Z,40
2017-06-26T18:41:35.709Z,40.21
2017-06-26T18:42:35.994Z,40.19
2017-06-26T18:43:35.684Z,40.29
2017-06-26T18:44:35.998Z,40.19
2017-06-26T18:45:36.004Z,40.19
2017-06-26T18:46:36.024Z,40.09
2017-06-26T18:47:35.707Z,42.14
2017-06-26T18:48:36.036Z,41.06
2017-06-26T18:49:36.035Z,41.26
2017-06-26T18:50:36.033Z,41.06
2017-06-26T18:51:36.043Z,40.97
2017-06-26T18:52:36.053Z,40.97
2017-06-26T18:53:36.064Z,41.36
2017-06-26T18:54:35.750Z,41.55
2017-06-26T18:55:36.069Z,41.53
2017-06-26T18:56:36.072Z,41.14
2017-06-26T18:57:36.081Z,41.44
2017-06-26T18:58:36.287Z,41.55
2017-06-26T18:59:36.100Z,41.73
2017-06-26T19:00:36.100Z,41.83
2017-06-26T19:01:36.154Z,41.44
2017-06-26T19:02:36.115Z,42.11
2017-06-26T19:03:36.119Z,41.73
2017-06-26T19:04:36.120Z,41.83
2017-06-26T19:05:36.127Z,41.83
2017-06-26T19:06:36.140Z,41.63
2017-06-26T19:07:36.142Z,44.65
2017-06-26T19:08:36.146Z,44.45
2017-06-26T19:09:36.160Z,44.53
2017-06-26T19:10:36.162Z,43.46
2017-06-26T19:11:36.183Z,42.68
2017-06-26T19:12:35.884Z,42.97
2017-06-26T19:13:36.176Z,42.68
2017-06-26T19:14:35.869Z,42.97
2017-06-26T19:15:36.191Z,42.68
2017-06-26T19:16:37.603Z,42.78
2017-06-26T19:17:36.202Z,42.87
2017-06-26T19:18:36.210Z,43.26
2017-06-26T19:19:36.217Z,42.97
2017-06-26T19:20:36.228Z,43.65
2017-06-26T19:21:36.227Z,43.46
2017-06-26T19:22:36.259Z,43.26
2017-06-26T19:23:36.237Z,44.04
2017-06-26T19:24:36.251Z,43.85
2017-06-26T19:25:36.265Z,44.02
2017-06-26T19:26:36.252Z,44.41
2017-06-26T19:27:36.299Z,44.89
2017-06-26T19:28:35.963Z,44.41
2017-06-26T19:29:35.972Z,44.02
2017-06-26T19:30:36.280Z,44.12
2017-06-26T19:31:38.185Z,44.6
2017-06-26T19:32:36.298Z,45.77
2017-06-26T19:33:36.298Z,46.35
2017-06-26T19:34:36.300Z,45.77
2017-06-26T19:35:36.030Z,45.97
2017-06-26T19:36:36.313Z,46.06
2017-06-26T19:37:36.335Z,45.87
2017-06-26T19:38:36.336Z,46.06
2017-06-26T19:39:36.341Z,46.74
